C07

Mack Mesa Airport

Mack, Colorado, USA
METAR KC07 251630Z AUTO 25004KT 10SM CLR 01/M09 A3041 RMK AO2
Observed Flight Rules
Sep-25 @ 16:30 UTC (34 minutes ago) Visual Flight Rules
Wind Visibility Clouds
250° at 4 knots 10 miles
  • Clear skies
Temperatures Readings
Current 1°C / 34°F
Dewpoint -9°C / 16°F
Humidity 48%
Altimeter 30.41" Hg
Pressure 1030 hPa
Elevation 3224
METAR KC07 251630Z AUTO 25004KT 10SM CLR 01/M09 A3041 RMK AO2
Observed Flight Rules
Sep-25 @ 16:30 UTC
(34 minutes ago)
VFR
Wind Visibility
250° at 4 knots 10 miles
Clouds
  • Clear skies
Temperature Dewpoint
1°C / 34°F -9°C / 16°F
Humidity Altimeter Pressure
48% 30.41" Hg 1030 hPa